Dublin, CA

12:51 PM PST on January 29, 2015 (GMT -0800)
KCADUBLI8 | Change Station
CLOSE
Current Station
Personal Weather Station
Location: Dublin, CA
Elevation: 338 ft
Nearby Weather Stations

Elev 338 ft 37.71 °N, 121.92 °W | Updated 1 minute ago

Clear
Clear
64.0 °F
Feels Like 64.0 °F
N
2.0
Wind Variable Wind from ENE
Gusts 4.0 mph

Today
High -- | Low -- °F
--% Chance of Precip.
Yesterday
High -- | Low -- °F
Precip. -- in
7:14 AM 5:28 PM
Waxing Gibbous, 77% visible
Pressure 30.14 in
Visibility 10.0 miles
Clouds Clear
Dew Point 49 °F
Humidity 58%
Rainfall 0.00 in
Snow Depth Not available.
UV 4 out of 12
Pollen 5.20 out of 12
Air Quality Not available.
Flu Activity Not available.
METAR KLVK 291953Z 08004KT 10SM CLR 18/09 A3014 RMK AO2 SLP204 T01780089

More Conditions Fewer Conditions

Pressure 30.14 in
Visibility 10.0 miles
Clouds Clear
Dew Point 49 °F
Humidity 58%
Rainfall 0.00 in
Snow Depth Not available.
UV 4 out of 12
Pollen 5.20 out of 12
Air Quality Not available.
Flu Activity Not available.
METAR KLVK 291953Z 08004KT 10SM CLR 18/09 A3014 RMK AO2 SLP204 T01780089

More Conditions Fewer Conditions

10-Day Weather Forecast

Almanac

Astronomy

Jan. 29, 2015 Rise Set
Actual Time
Civil Twilight
Nautical Twilight
Astronomical Twilight
Moon
Length of Visible Light
Length of Day
Tomorrow will be .
, % of the Moon is Illuminated

Today's Extremes

State Highs State Lows

Community

WunderPhotos

Upload Photos

1,791,594 photos uploaded!

WunderBlogs® & News

Nearby

Air Quality

  Air Quality AQ Index Pollutant
Not available.

Snow Depth

Station Depth Elevation

Earthquake Activity

City Distance Mag. Time & Date
Minimum magnitude displayed is 2.5.

Coastal Water Temperatures

Place Temperature

Nearby Weather Stations